Time;durP1;ratioP1;P1;durP2;ratioP2;P2;SDS_P1;SDS_P2;PMS_P1;PMS_P2;Temp;Humidity;BMP_temperature;BMP_pressure;BME280_temperature;BME280_humidity;BME280_pressure;Samples;Min_cycle;Max_cycle;Signal;HPM_P1;HPM_P2
2022/08/08 00:00:48;;;;;;;0.40;0.32;;;23.80;49.60;;;;;;6221394;28;20064;-67
2022/08/08 00:03:58;;;;;;;0.52;0.30;;;23.80;49.60;;;;;;6229381;28;20018;-67
2022/08/08 00:07:26;;;;;;;0.93;0.63;;;23.80;49.60;;;;;;6244931;28;20063;-67
2022/08/08 00:10:51;;;;;;;0.55;0.40;;;23.80;49.70;;;;;;6223969;28;20041;-67
2022/08/08 00:14:17;;;;;;;0.55;0.50;;;23.80;49.70;;;;;;6227913;28;20469;-68
2022/08/08 00:17:42;;;;;;;0.95;0.50;;;23.80;49.70;;;;;;6231145;28;20075;-67
2022/08/08 00:20:56;;;;;;;0.45;0.40;;;23.80;49.80;;;;;;6222396;28;20030;-67
2022/08/08 00:24:01;;;;;;;0.70;0.40;;;23.80;49.80;;;;;;6226973;28;20508;-67
2022/08/08 00:27:07;;;;;;;0.40;0.40;;;23.70;49.80;;;;;;6244664;28;20032;-67
2022/08/08 00:30:10;;;;;;;0.55;0.40;;;23.70;49.80;;;;;;6228360;28;20034;-67
2022/08/08 00:33:16;;;;;;;0.50;0.50;;;23.70;49.80;;;;;;6220249;28;20036;-67
2022/08/08 00:36:29;;;;;;;1.05;0.35;;;23.70;49.80;;;;;;6215123;28;20520;-67
2022/08/08 00:39:50;;;;;;;0.40;0.40;;;23.70;49.90;;;;;;6228678;28;20018;-67
2022/08/08 00:43:08;;;;;;;0.70;0.50;;;23.70;49.90;;;;;;6244215;28;20488;-67
2022/08/08 00:46:20;;;;;;;0.65;0.40;;;23.70;50.00;;;;;;6222063;28;20400;-67
2022/08/08 00:50:05;;;;;;;0.55;0.50;;;23.70;50.00;;;;;;6226103;28;20522;-66
2022/08/08 00:53:53;;;;;;;0.68;0.60;;;23.70;50.00;;;;;;6206630;28;20038;-67
2022/08/08 00:57:25;;;;;;;0.90;0.50;;;23.70;50.10;;;;;;6195591;28;20064;-67
2022/08/08 01:00:29;;;;;;;0.75;0.52;;;23.70;50.10;;;;;;6217387;28;20029;-67
2022/08/08 01:03:39;;;;;;;0.75;0.57;;;23.70;50.10;;;;;;6213963;28;20030;-67
2022/08/08 01:07:24;;;;;;;0.52;0.38;;;23.70;50.20;;;;;;6243414;28;20068;-67
2022/08/08 01:10:49;;;;;;;1.00;0.60;;;23.70;50.20;;;;;;6182269;28;20106;-67
2022/08/08 01:14:11;;;;;;;0.47;0.45;;;23.70;50.20;;;;;;6202966;28;20018;-67
2022/08/08 01:17:45;;;;;;;0.70;0.50;;;23.70;50.20;;;;;;6196639;28;20058;-67
2022/08/08 01:21:19;;;;;;;0.55;0.40;;;23.70;50.20;;;;;;6222990;28;20120;-67
2022/08/08 01:24:57;;;;;;;0.60;0.40;;;23.70;50.30;;;;;;6239074;28;20314;-67
2022/08/08 01:28:35;;;;;;;1.20;0.50;;;23.70;50.30;;;;;;6220349;28;20038;-67
2022/08/08 01:32:00;;;;;;;0.28;0.28;;;23.70;50.30;;;;;;6234309;28;20501;-67
2022/08/08 01:35:35;;;;;;;0.40;0.38;;;23.70;50.40;;;;;;6218343;28;20100;-68
2022/08/08 01:38:54;;;;;;;0.40;0.40;;;23.70;50.40;;;;;;6219429;28;20057;-67
2022/08/08 01:42:14;;;;;;;0.32;0.30;;;23.70;50.40;;;;;;6239460;28;20021;-67
2022/08/08 01:45:44;;;;;;;0.68;0.50;;;23.60;50.40;;;;;;6236389;28;20064;-67
2022/08/08 01:49:06;;;;;;;0.30;0.20;;;23.60;50.40;;;;;;6236003;28;20051;-67
2022/08/08 01:52:26;;;;;;;0.60;0.50;;;23.60;50.40;;;;;;6221914;28;20053;-67
2022/08/08 01:55:34;;;;;;;0.70;0.40;;;23.60;50.40;;;;;;6225196;28;20087;-67
2022/08/08 01:58:48;;;;;;;0.52;0.40;;;23.60;50.40;;;;;;6243794;28;20286;-67
2022/08/08 02:02:26;;;;;;;0.47;0.40;;;23.60;50.50;;;;;;6227095;28;20041;-68
2022/08/08 02:05:44;;;;;;;0.70;0.50;;;23.60;50.50;;;;;;6222418;28;20103;-67
2022/08/08 02:09:00;;;;;;;0.40;0.40;;;23.60;50.50;;;;;;6242648;28;20048;-67
2022/08/08 02:12:10;;;;;;;0.90;0.40;;;23.60;50.50;;;;;;6225044;28;20507;-67
2022/08/08 02:15:28;;;;;;;0.40;0.40;;;23.60;50.60;;;;;;6221247;28;20018;-68
2022/08/08 02:18:51;;;;;;;0.40;0.40;;;23.60;50.60;;;;;;6243765;28;20079;-67
2022/08/08 02:25:28;;;;;;;0.80;0.40;;;23.60;50.60;;;;;;6217397;28;20058;-67
2022/08/08 02:28:58;;;;;;;0.38;0.38;;;23.60;50.60;;;;;;6218764;28;20041;-67
2022/08/08 02:32:21;;;;;;;0.40;0.30;;;23.60;50.60;;;;;;6225510;28;20105;-67
2022/08/08 02:35:44;;;;;;;0.45;0.43;;;23.60;50.70;;;;;;6218984;28;20037;-67
2022/08/08 02:39:26;;;;;;;0.47;0.40;;;23.60;50.70;;;;;;6218914;28;20026;-67
2022/08/08 02:42:58;;;;;;;0.75;0.50;;;23.60;50.60;;;;;;6191708;28;20033;-67
2022/08/08 02:46:28;;;;;;;1.45;0.43;;;23.60;50.70;;;;;;6200878;28;20041;-68
2022/08/08 02:49:47;;;;;;;0.50;0.50;;;23.60;50.70;;;;;;6246794;28;20029;-67
2022/08/08 02:53:10;;;;;;;0.50;0.47;;;23.60;50.70;;;;;;6229904;28;21098;-67
2022/08/08 02:56:55;;;;;;;0.40;0.38;;;23.60;50.70;;;;;;6223600;28;20157;-67
2022/08/08 02:59:59;;;;;;;0.93;0.57;;;23.60;50.80;;;;;;6247214;28;20041;-67
2022/08/08 03:03:33;;;;;;;0.43;0.40;;;23.60;50.80;;;;;;6237152;28;20029;-67
2022/08/08 03:06:54;;;;;;;0.50;0.50;;;23.60;50.80;;;;;;6241216;28;20524;-67
2022/08/08 03:09:55;;;;;;;0.30;0.30;;;23.60;50.80;;;;;;6222265;28;20041;-67
2022/08/08 03:13:33;;;;;;;1.25;0.40;;;23.60;50.80;;;;;;6240077;28;20105;-67
2022/08/08 03:17:04;;;;;;;0.50;0.50;;;23.60;50.80;;;;;;6242826;28;20029;-66
2022/08/08 03:20:09;;;;;;;0.40;0.40;;;23.60;50.80;;;;;;6222774;28;20492;-68
2022/08/08 03:23:10;;;;;;;0.47;0.47;;;23.60;50.90;;;;;;6240335;28;20103;-67
2022/08/08 03:26:15;;;;;;;0.50;0.40;;;23.60;50.90;;;;;;6244470;28;20026;-66
2022/08/08 03:29:20;;;;;;;0.57;0.50;;;23.60;50.90;;;;;;6220030;28;20096;-67
2022/08/08 03:35:40;;;;;;;0.40;0.40;;;23.60;51.00;;;;;;6221605;28;19991;-67
2022/08/08 03:38:45;;;;;;;0.98;0.50;;;23.60;51.00;;;;;;6240801;28;20029;-69
2022/08/08 03:41:46;;;;;;;0.35;0.35;;;23.60;51.00;;;;;;6241774;28;20109;-67
2022/08/08 03:44:47;;;;;;;0.82;0.60;;;23.60;51.00;;;;;;6219613;28;20030;-67
2022/08/08 03:48:06;;;;;;;0.38;0.30;;;23.60;51.10;;;;;;6231001;28;20484;-67
2022/08/08 03:51:07;;;;;;;0.63;0.40;;;23.60;51.00;;;;;;6245259;28;20450;-67
2022/08/08 03:54:09;;;;;;;0.77;0.60;;;23.60;51.10;;;;;;6224455;28;20368;-67
2022/08/08 03:57:14;;;;;;;0.60;0.40;;;23.60;51.10;;;;;;6224731;28;20014;-67
2022/08/08 04:00:17;;;;;;;0.52;0.52;;;23.60;51.10;;;;;;6241511;28;20040;-68
2022/08/08 04:03:18;;;;;;;0.80;0.60;;;23.60;51.10;;;;;;6222016;28;20052;-68
2022/08/08 04:06:19;;;;;;;0.30;0.30;;;23.60;51.10;;;;;;6244611;28;20633;-67
2022/08/08 04:09:19;;;;;;;0.60;0.50;;;23.60;51.10;;;;;;6224380;28;20034;-67
2022/08/08 04:12:20;;;;;;;0.68;0.50;;;23.60;51.10;;;;;;6224009;28;20025;-67
2022/08/08 04:15:21;;;;;;;0.50;0.50;;;23.60;51.20;;;;;;6244377;28;20025;-67
2022/08/08 04:18:22;;;;;;;0.47;0.30;;;23.60;51.10;;;;;;6232729;28;20431;-67
2022/08/08 04:21:23;;;;;;;0.57;0.40;;;23.60;51.10;;;;;;6219209;28;20030;-67
2022/08/08 04:24:23;;;;;;;0.45;0.45;;;23.60;51.20;;;;;;6199722;28;1114980;-67
2022/08/08 04:27:25;;;;;;;0.60;0.52;;;23.50;51.10;;;;;;6243211;28;20121;-67
2022/08/08 04:30:25;;;;;;;0.52;0.50;;;23.50;51.10;;;;;;6219964;28;20097;-67
2022/08/08 04:33:26;;;;;;;0.50;0.40;;;23.60;51.20;;;;;;6219990;28;20563;-66
2022/08/08 04:36:27;;;;;;;0.40;0.40;;;23.60;51.20;;;;;;6220394;28;20022;-66
2022/08/08 04:39:27;;;;;;;0.60;0.50;;;23.60;51.20;;;;;;6238398;28;20026;-67
2022/08/08 04:42:32;;;;;;;0.40;0.40;;;23.60;51.20;;;;;;6244715;28;20038;-66
2022/08/08 04:45:33;;;;;;;0.40;0.40;;;23.50;51.10;;;;;;6220416;28;20030;-67
2022/08/08 04:48:33;;;;;;;0.40;0.40;;;23.60;51.20;;;;;;6228536;28;20504;-67
2022/08/08 04:51:34;;;;;;;0.75;0.40;;;23.50;51.20;;;;;;6244433;28;20037;-67
2022/08/08 04:54:35;;;;;;;0.50;0.50;;;23.50;51.40;;;;;;6229293;28;20450;-67
2022/08/08 04:57:36;;;;;;;1.05;0.52;;;23.50;51.10;;;;;;6220833;28;20575;-67
2022/08/08 05:00:37;;;;;;;0.77;0.60;;;23.50;51.20;;;;;;6234636;28;20054;-67
2022/08/08 05:03:37;;;;;;;0.50;0.50;;;23.50;51.20;;;;;;6209466;28;20083;-67
2022/08/08 05:06:38;;;;;;;0.52;0.35;;;23.50;51.20;;;;;;6245181;28;20037;-67
2022/08/08 05:09:39;;;;;;;0.60;0.40;;;23.50;51.20;;;;;;6229541;28;20041;-67
2022/08/08 05:12:41;;;;;;;0.43;0.40;;;23.50;51.20;;;;;;6220916;28;20084;-67
2022/08/08 05:15:41;;;;;;;0.45;0.45;;;23.50;51.30;;;;;;6243257;28;20083;-67
2022/08/08 05:18:42;;;;;;;0.40;0.40;;;23.50;51.30;;;;;;6239266;28;20054;-67
2022/08/08 05:21:43;;;;;;;0.50;0.50;;;23.50;51.20;;;;;;6220914;28;20129;-67
2022/08/08 05:24:44;;;;;;;0.43;0.40;;;23.50;51.30;;;;;;6226250;28;20432;-67
2022/08/08 05:27:44;;;;;;;0.73;0.60;;;23.50;51.30;;;;;;6220347;28;20109;-67
2022/08/08 05:30:45;;;;;;;0.60;0.50;;;23.50;51.30;;;;;;6220388;28;20025;-68
2022/08/08 05:33:46;;;;;;;0.60;0.50;;;23.50;51.40;;;;;;6220240;28;20400;-67
2022/08/08 05:36:48;;;;;;;1.17;0.50;;;23.50;51.40;;;;;;6220377;28;20029;-67
2022/08/08 05:39:53;;;;;;;0.88;0.50;;;23.50;51.30;;;;;;6232258;28;20275;-67
2022/08/08 05:43:06;;;;;;;0.90;0.60;;;23.50;51.30;;;;;;6244442;28;20044;-67
2022/08/08 05:46:07;;;;;;;0.50;0.50;;;23.50;51.40;;;;;;6222614;28;20068;-68
2022/08/08 05:49:08;;;;;;;0.45;0.45;;;23.50;51.40;;;;;;6224881;28;20072;-67
2022/08/08 05:52:09;;;;;;;0.45;0.45;;;23.50;51.40;;;;;;6243240;28;20025;-67
2022/08/08 05:55:10;;;;;;;0.85;0.50;;;23.50;51.40;;;;;;6231291;28;20033;-68
2022/08/08 05:58:14;;;;;;;0.52;0.45;;;23.50;51.40;;;;;;6220292;28;20480;-67
2022/08/08 06:01:15;;;;;;;0.43;0.43;;;23.50;51.40;;;;;;6207963;28;20022;-67
2022/08/08 06:04:21;;;;;;;0.40;0.40;;;23.50;51.40;;;;;;6221411;28;20379;-67
2022/08/08 06:07:22;;;;;;;0.30;0.30;;;23.50;51.30;;;;;;6221183;28;20030;-67
2022/08/08 06:10:23;;;;;;;1.00;0.40;;;23.50;51.30;;;;;;6221328;28;20080;-67
2022/08/08 06:13:27;;;;;;;0.50;0.35;;;23.50;51.40;;;;;;6221808;28;20475;-66
2022/08/08 06:16:28;;;;;;;0.50;0.50;;;23.50;51.30;;;;;;6242502;28;20423;-67
2022/08/08 06:19:28;;;;;;;0.52;0.50;;;23.50;51.40;;;;;;6242642;28;20017;-66
2022/08/08 06:22:29;;;;;;;0.57;0.57;;;23.50;51.40;;;;;;6221597;28;20033;-68
2022/08/08 06:25:34;;;;;;;0.68;0.60;;;23.50;51.40;;;;;;6232982;28;20026;-67
2022/08/08 06:28:47;;;;;;;0.47;0.47;;;23.50;51.40;;;;;;6246165;28;20121;-67
2022/08/08 06:31:49;;;;;;;0.47;0.47;;;23.50;51.40;;;;;;6224694;28;20050;-68
2022/08/08 06:34:52;;;;;;;0.68;0.60;;;23.50;51.40;;;;;;6221504;28;20014;-67
2022/08/08 06:37:58;;;;;;;0.95;0.60;;;23.50;51.40;;;;;;6221675;28;20026;-65
2022/08/08 06:41:04;;;;;;;0.40;0.40;;;23.50;51.40;;;;;;6234625;28;20426;-67
2022/08/08 06:44:09;;;;;;;0.30;0.30;;;23.50;51.40;;;;;;6246296;28;20021;-67
2022/08/08 06:47:10;;;;;;;0.43;0.43;;;23.50;51.50;;;;;;6222414;28;20544;-67
2022/08/08 06:50:11;;;;;;;0.77;0.32;;;23.50;51.50;;;;;;6226362;28;20073;-67
2022/08/08 06:53:11;;;;;;;0.85;0.57;;;23.50;51.50;;;;;;6244913;28;20126;-67
2022/08/08 06:56:13;;;;;;;0.52;0.50;;;23.50;52.50;;;;;;6231420;28;20030;-67
2022/08/08 06:59:13;;;;;;;0.70;0.50;;;23.40;49.90;;;;;;6221227;28;20038;-67
2022/08/08 07:02:26;;;;;;;0.73;0.50;;;23.50;49.20;;;;;;6206274;28;20030;-67
2022/08/08 07:05:30;;;;;;;0.60;0.60;;;23.60;48.70;;;;;;6207832;28;20553;-67
2022/08/08 07:08:37;;;;;;;0.40;0.38;;;23.80;48.40;;;;;;6245536;28;20097;-67
2022/08/08 07:11:41;;;;;;;0.50;0.47;;;23.90;48.20;;;;;;6229672;28;20076;-67
2022/08/08 07:14:57;;;;;;;0.88;0.50;;;23.90;47.90;;;;;;6220992;28;20366;-67
2022/08/08 07:18:05;;;;;;;1.00;0.50;;;24.00;47.70;;;;;;6214900;28;20109;-67
2022/08/08 07:21:07;;;;;;;0.65;0.57;;;24.00;47.50;;;;;;6229779;28;20056;-67
2022/08/08 07:24:23;;;;;;;0.65;0.60;;;24.10;47.30;;;;;;6242226;28;20204;-67
2022/08/08 07:27:28;;;;;;;0.80;0.55;;;24.10;47.20;;;;;;6209961;28;20037;-67
2022/08/08 07:30:30;;;;;;;1.02;0.80;;;24.10;46.90;;;;;;6220508;28;20400;-67
2022/08/08 07:33:31;;;;;;;1.13;0.60;;;24.20;46.80;;;;;;6228000;28;20033;-67
2022/08/08 07:36:32;;;;;;;0.50;0.50;;;24.20;46.80;;;;;;6225978;28;20133;-67
2022/08/08 07:39:35;;;;;;;1.00;0.60;;;24.20;46.60;;;;;;6224884;28;20022;-67
2022/08/08 07:42:37;;;;;;;0.50;0.50;;;24.20;46.60;;;;;;6224541;28;20037;-67
2022/08/08 07:45:41;;;;;;;0.93;0.60;;;24.20;46.50;;;;;;6246180;28;20595;-67
2022/08/08 07:48:41;;;;;;;0.70;0.50;;;24.20;46.50;;;;;;6224561;28;20465;-67
2022/08/08 07:51:42;;;;;;;3.05;0.80;;;24.20;46.40;;;;;;6234009;28;20033;-67
2022/08/08 07:55:09;;;;;;;0.75;0.60;;;24.20;46.40;;;;;;6248987;28;20026;-67
2022/08/08 07:58:25;;;;;;;0.73;0.55;;;24.20;46.30;;;;;;6238137;28;20033;-67
2022/08/08 08:01:29;;;;;;;0.90;0.70;;;24.20;46.30;;;;;;6236851;28;20048;-67
2022/08/08 08:04:33;;;;;;;0.90;0.77;;;24.30;46.30;;;;;;6249040;28;20060;-67
2022/08/08 08:07:34;;;;;;;0.68;0.65;;;24.20;46.30;;;;;;6233638;28;20575;-67
2022/08/08 08:10:37;;;;;;;0.98;0.65;;;24.30;46.30;;;;;;6224379;28;20029;-66
2022/08/08 08:13:49;;;;;;;0.88;0.60;;;24.30;46.20;;;;;;6246396;28;20061;-67
2022/08/08 08:16:50;;;;;;;1.00;0.80;;;24.30;46.20;;;;;;6240079;28;20048;-67
2022/08/08 08:19:57;;;;;;;0.90;0.60;;;24.30;46.20;;;;;;6223423;28;20022;-67
2022/08/08 08:22:58;;;;;;;0.93;0.50;;;24.30;46.10;;;;;;6239340;28;20041;-67
2022/08/08 08:25:59;;;;;;;1.00;0.55;;;24.30;46.10;;;;;;6230223;28;20065;-67
2022/08/08 08:28:59;;;;;;;0.68;0.50;;;24.30;46.00;;;;;;6214842;28;20068;-67
2022/08/08 08:32:00;;;;;;;1.25;0.68;;;24.30;45.90;;;;;;6183357;28;20065;-67
2022/08/08 08:35:03;;;;;;;4.38;0.80;;;24.30;45.90;;;;;;6244886;28;20428;-68
2022/08/08 08:38:03;;;;;;;0.80;0.70;;;24.40;45.90;;;;;;6237355;28;20057;-68
2022/08/08 08:41:10;;;;;;;1.23;0.82;;;24.30;45.80;;;;;;6226406;28;20041;-68
2022/08/08 08:44:13;;;;;;;0.82;0.63;;;24.40;45.60;;;;;;6222924;28;20119;-67
2022/08/08 08:47:15;;;;;;;1.20;0.70;;;24.40;45.50;;;;;;6229591;28;20041;-68
2022/08/08 08:50:16;;;;;;;1.15;0.70;;;24.40;45.30;;;;;;6222766;28;20102;-68
2022/08/08 08:53:16;;;;;;;2.95;0.70;;;24.50;45.40;;;;;;6223302;28;20058;-68
2022/08/08 08:56:23;;;;;;;1.05;0.85;;;24.50;45.30;;;;;;6222955;28;20101;-67
2022/08/08 08:59:29;;;;;;;1.45;0.70;;;24.50;45.20;;;;;;6221101;28;20030;-68
2022/08/08 09:02:33;;;;;;;3.90;0.70;;;24.50;45.10;;;;;;6223474;28;20109;-68
2022/08/08 09:05:38;;;;;;;1.23;0.75;;;24.50;45.10;;;;;;6221818;28;20026;-68
2022/08/08 09:08:43;;;;;;;1.48;0.80;;;24.50;45.10;;;;;;6221083;28;20033;-68
2022/08/08 09:11:46;;;;;;;1.30;0.93;;;24.50;45.00;;;;;;6198427;28;20076;-68
2022/08/08 09:14:50;;;;;;;2.00;0.73;;;24.60;45.00;;;;;;6246068;28;20083;-68
2022/08/08 09:17:51;;;;;;;1.50;0.85;;;24.60;45.20;;;;;;6240241;28;20392;-67
2022/08/08 09:20:53;;;;;;;0.60;0.60;;;24.50;45.00;;;;;;6223048;28;20026;-68
2022/08/08 09:23:54;;;;;;;1.40;0.77;;;24.60;45.20;;;;;;6237330;28;20408;-68
2022/08/08 09:27:11;;;;;;;3.70;0.70;;;24.50;45.10;;;;;;6247308;28;20021;-67
2022/08/08 09:30:13;;;;;;;1.23;1.00;;;24.50;45.00;;;;;;6222568;28;20145;-68
2022/08/08 09:33:16;;;;;;;1.15;0.52;;;24.50;45.10;;;;;;6227240;28;20075;-68
2022/08/08 09:36:21;;;;;;;1.20;0.73;;;24.50;45.10;;;;;;6222348;28;20105;-67
2022/08/08 09:39:25;;;;;;;1.48;0.68;;;24.50;45.00;;;;;;6226389;28;20022;-67
2022/08/08 09:42:35;;;;;;;0.60;0.60;;;24.50;45.00;;;;;;6222431;28;20049;-67
2022/08/08 09:45:56;;;;;;;1.00;0.60;;;24.50;45.00;;;;;;6246825;28;20052;-68
2022/08/08 09:48:59;;;;;;;0.70;0.70;;;24.50;44.90;;;;;;6234608;28;20045;-67
2022/08/08 09:52:03;;;;;;;1.40;0.63;;;24.50;44.90;;;;;;6198046;28;20045;-67
2022/08/08 09:55:04;;;;;;;1.90;0.70;;;24.50;44.90;;;;;;6238120;28;20022;-67
2022/08/08 09:58:07;;;;;;;0.95;0.55;;;24.50;44.80;;;;;;6242488;28;20092;-67
2022/08/08 10:01:09;;;;;;;0.63;0.63;;;24.50;44.90;;;;;;6221956;28;20054;-67
2022/08/08 10:04:14;;;;;;;2.00;0.60;;;24.60;44.90;;;;;;6212338;28;20501;-67
2022/08/08 10:07:15;;;;;;;0.63;0.50;;;24.60;44.90;;;;;;6222199;28;20033;-67
2022/08/08 10:10:35;;;;;;;0.73;0.63;;;24.60;44.90;;;;;;6242261;28;20022;-67
2022/08/08 10:13:35;;;;;;;0.47;0.43;;;24.60;44.80;;;;;;6239791;28;20091;-66
2022/08/08 10:16:38;;;;;;;0.70;0.70;;;24.60;44.80;;;;;;6221969;28;20021;-67
2022/08/08 10:19:41;;;;;;;0.57;0.52;;;24.60;44.80;;;;;;6235468;28;20085;-67
2022/08/08 10:22:59;;;;;;;1.30;0.60;;;24.50;44.70;;;;;;6246549;28;20029;-67
2022/08/08 10:26:02;;;;;;;0.60;0.60;;;24.60;44.70;;;;;;6222329;28;20113;-68
2022/08/08 10:29:06;;;;;;;0.68;0.60;;;24.60;44.70;;;;;;6229412;28;20399;-67
2022/08/08 10:35:31;;;;;;;0.80;0.60;;;24.60;44.60;;;;;;6222325;28;20026;-67
2022/08/08 10:38:34;;;;;;;1.67;0.55;;;24.50;45.20;;;;;;6223523;28;20030;-68
2022/08/08 10:41:36;;;;;;;0.75;0.70;;;24.30;45.60;;;;;;6246745;28;20017;-68
2022/08/08 10:44:39;;;;;;;0.50;0.50;;;24.20;46.20;;;;;;6235603;28;20022;-68
2022/08/08 10:47:42;;;;;;;0.82;0.60;;;24.20;46.80;;;;;;6221931;28;20030;-67
2022/08/08 10:50:43;;;;;;;1.33;0.50;;;24.10;47.10;;;;;;6239816;28;20032;-68
2022/08/08 10:53:48;;;;;;;1.02;0.60;;;24.10;47.40;;;;;;6244607;28;20647;-68
2022/08/08 10:56:59;;;;;;;0.80;0.57;;;24.00;47.50;;;;;;6221702;28;20032;-67
2022/08/08 11:00:00;;;;;;;0.93;0.70;;;24.00;47.60;;;;;;6232760;28;20068;-67
2022/08/08 11:03:11;;;;;;;0.50;0.47;;;24.00;47.70;;;;;;6198075;28;20018;-67
2022/08/08 11:06:14;;;;;;;0.88;0.60;;;24.00;47.70;;;;;;6238571;28;20021;-68
2022/08/08 11:09:14;;;;;;;0.43;0.43;;;24.00;47.80;;;;;;6247373;28;20038;-67
2022/08/08 11:12:15;;;;;;;0.70;0.60;;;24.00;47.90;;;;;;6226322;28;20037;-67
2022/08/08 11:15:21;;;;;;;0.90;0.80;;;24.00;48.00;;;;;;6237363;28;20033;-67
2022/08/08 11:18:22;;;;;;;0.70;0.60;;;24.00;48.10;;;;;;6250506;28;20109;-67
2022/08/08 11:21:24;;;;;;;0.45;0.43;;;24.00;48.10;;;;;;6230751;28;20025;-68
2022/08/08 11:24:26;;;;;;;0.52;0.40;;;24.00;48.20;;;;;;6224900;28;20046;-68
2022/08/08 11:27:30;;;;;;;0.50;0.50;;;24.00;48.30;;;;;;6247245;28;20068;-68
2022/08/08 11:30:33;;;;;;;0.60;0.50;;;24.00;48.40;;;;;;6238612;28;20100;-67
2022/08/08 11:33:36;;;;;;;0.43;0.43;;;24.00;48.50;;;;;;6243610;28;20075;-67
2022/08/08 11:36:38;;;;;;;0.90;0.50;;;24.00;48.50;;;;;;6230829;28;20022;-67
2022/08/08 11:39:39;;;;;;;0.73;0.60;;;23.90;48.50;;;;;;6228459;28;20109;-67
2022/08/08 11:42:44;;;;;;;0.70;0.55;;;23.90;48.50;;;;;;6251072;28;20032;-68
2022/08/08 11:45:44;;;;;;;;;;;24.00;48.60;;;;;;6239464;28;20038;-68
2022/08/08 11:48:46;;;;;;;0.75;0.63;;;23.90;48.60;;;;;;6225704;28;19968;-67
2022/08/08 11:51:47;;;;;;;1.20;0.63;;;23.90;48.70;;;;;;6244387;28;20562;-68
2022/08/08 11:54:48;;;;;;;0.60;0.50;;;23.90;48.70;;;;;;6248034;28;20064;-68
2022/08/08 11:58:09;;;;;;;0.70;0.50;;;23.90;48.80;;;;;;6225453;28;20032;-67
2022/08/08 12:01:09;;;;;;;2.15;0.60;;;23.90;48.80;;;;;;6219221;28;20026;-68
2022/08/08 12:04:10;;;;;;;0.55;0.55;;;23.90;48.80;;;;;;6201014;28;20041;-68
2022/08/08 12:07:11;;;;;;;0.80;0.50;;;23.90;48.90;;;;;;6240874;28;20025;-68
2022/08/08 12:10:14;;;;;;;0.50;0.50;;;23.90;49.60;;;;;;6246339;28;20022;-67
2022/08/08 12:13:21;;;;;;;0.95;0.52;;;23.90;49.00;;;;;;6225384;28;20048;-68
2022/08/08 12:16:22;;;;;;;0.45;0.45;;;23.90;49.10;;;;;;6236849;28;20112;-67
2022/08/08 12:19:27;;;;;;;0.80;0.70;;;23.90;49.10;;;;;;6248921;28;20027;-67
2022/08/08 12:22:27;;;;;;;0.60;0.60;;;23.90;49.20;;;;;;6229018;28;20101;-67
2022/08/08 12:25:31;;;;;;;0.60;0.50;;;23.90;49.10;;;;;;6227708;28;20032;-68
2022/08/08 12:28:32;;;;;;;0.55;0.55;;;23.90;49.20;;;;;;6249354;28;20042;-67
2022/08/08 12:31:33;;;;;;;0.50;0.50;;;23.90;49.30;;;;;;6237192;28;20488;-68
2022/08/08 12:34:51;;;;;;;1.60;0.50;;;23.80;49.20;;;;;;6224419;28;20050;-67
2022/08/08 12:38:12;;;;;;;0.50;0.50;;;23.90;49.30;;;;;;6224817;28;20061;-67
2022/08/08 12:41:13;;;;;;;0.63;0.60;;;23.80;49.30;;;;;;6231154;28;20026;-68
2022/08/08 12:44:14;;;;;;;0.88;0.50;;;23.80;49.30;;;;;;6248756;28;20234;-68
2022/08/08 12:47:26;;;;;;;0.50;0.50;;;23.80;49.30;;;;;;6233194;28;20495;-68
2022/08/08 12:50:38;;;;;;;0.70;0.60;;;23.80;49.40;;;;;;6223822;28;20022;-67
2022/08/08 12:53:57;;;;;;;1.40;0.60;;;23.80;49.40;;;;;;6199900;28;20019;-68
2022/08/08 12:56:59;;;;;;;0.60;0.50;;;23.80;49.50;;;;;;6222137;28;20033;-67
2022/08/08 13:00:00;;;;;;;0.80;0.60;;;23.80;49.50;;;;;;6246982;28;20029;-67
2022/08/08 13:03:01;;;;;;;0.82;0.68;;;23.80;49.50;;;;;;6237801;28;20053;-68
2022/08/08 13:06:12;;;;;;;0.40;0.40;;;23.80;49.50;;;;;;6245401;28;20071;-67
2022/08/08 13:09:16;;;;;;;0.40;0.40;;;23.80;49.50;;;;;;6222245;28;20065;-67
2022/08/08 13:12:32;;;;;;;0.98;0.50;;;23.80;49.60;;;;;;6234957;28;20029;-67
2022/08/08 13:15:32;;;;;;;1.10;0.50;;;23.80;49.60;;;;;;6247443;28;20033;-67
2022/08/08 13:18:34;;;;;;;0.63;0.63;;;23.80;49.70;;;;;;6225374;28;20037;-67
2022/08/08 13:21:45;;;;;;;0.63;0.50;;;23.80;49.70;;;;;;6227480;28;20483;-67
2022/08/08 13:24:46;;;;;;;0.47;0.47;;;23.80;49.70;;;;;;6240215;28;20057;-68
2022/08/08 13:27:55;;;;;;;0.40;0.40;;;23.80;49.70;;;;;;6222756;28;20544;-68
2022/08/08 13:30:55;;;;;;;0.70;0.65;;;23.80;49.70;;;;;;6222166;28;20030;-68
2022/08/08 13:33:57;;;;;;;0.43;0.43;;;23.80;49.70;;;;;;6222593;28;20037;-67
2022/08/08 13:36:58;;;;;;;0.50;0.50;;;23.80;49.80;;;;;;6228823;28;20029;-67
2022/08/08 13:40:02;;;;;;;0.50;0.50;;;23.80;49.80;;;;;;6247464;28;20029;-68
2022/08/08 13:43:03;;;;;;;0.77;0.70;;;23.80;49.80;;;;;;6232868;28;20022;-68
2022/08/08 13:46:11;;;;;;;0.50;0.50;;;23.80;49.80;;;;;;6222277;28;20022;-67
2022/08/08 13:49:16;;;;;;;1.35;0.90;;;23.80;49.90;;;;;;6245687;28;20033;-68
2022/08/08 13:52:16;;;;;;;0.53;0.40;;;23.80;49.90;;;;;;6240450;28;20052;-67
2022/08/08 13:55:18;;;;;;;0.63;0.50;;;23.80;49.90;;;;;;6222414;28;20304;-68
2022/08/08 13:58:18;;;;;;;0.80;0.80;;;23.80;50.00;;;;;;6236453;28;20025;-68
2022/08/08 14:01:19;;;;;;;0.90;0.70;;;23.80;50.70;;;;;;6225661;28;20023;-67
2022/08/08 14:04:22;;;;;;;0.50;0.50;;;23.80;50.00;;;;;;6241045;28;20032;-67
2022/08/08 14:07:26;;;;;;;0.40;0.40;;;23.80;50.00;;;;;;6240836;28;20048;-67
2022/08/08 14:10:26;;;;;;;0.60;0.50;;;23.80;50.00;;;;;;6221928;28;20160;-67
2022/08/08 14:13:27;;;;;;;0.63;0.60;;;23.80;50.10;;;;;;6234665;28;20445;-67
2022/08/08 14:16:27;;;;;;;0.60;0.60;;;23.80;50.10;;;;;;6245682;28;20029;-67
2022/08/08 14:19:38;;;;;;;0.50;0.50;;;23.80;50.10;;;;;;6224526;28;20097;-68
2022/08/08 14:22:41;;;;;;;1.42;0.68;;;23.80;50.10;;;;;;6226306;28;20056;-68
2022/08/08 14:25:45;;;;;;;0.70;0.60;;;23.80;50.10;;;;;;6246301;28;20055;-67
2022/08/08 14:28:54;;;;;;;0.57;0.50;;;23.80;50.20;;;;;;6232578;28;20026;-68
2022/08/08 14:31:55;;;;;;;0.75;0.52;;;23.80;50.20;;;;;;6221411;28;20120;-68
2022/08/08 14:35:00;;;;;;;0.47;0.40;;;23.80;50.20;;;;;;6221654;28;20089;-68
2022/08/08 14:38:05;;;;;;;0.70;0.60;;;23.80;50.20;;;;;;6228199;28;20024;-68
2022/08/08 14:41:12;;;;;;;;;;;23.80;50.20;;;;;;6249347;28;20024;-67
2022/08/08 14:44:13;;;;;;;0.50;0.50;;;23.80;50.20;;;;;;6235989;28;19912;-68
2022/08/08 14:47:14;;;;;;;0.40;0.40;;;23.80;50.20;;;;;;6226416;28;20484;-67
2022/08/08 14:50:22;;;;;;;0.57;0.50;;;23.80;50.30;;;;;;6250111;28;20072;-68
2022/08/08 14:53:33;;;;;;;0.65;0.60;;;23.80;50.30;;;;;;6219417;28;20377;-67
2022/08/08 14:56:34;;;;;;;0.47;0.47;;;23.80;50.30;;;;;;6225996;28;20026;-68
2022/08/08 14:59:35;;;;;;;0.60;0.50;;;23.80;50.50;;;;;;6232247;28;20029;-68
2022/08/08 15:02:36;;;;;;;0.57;0.57;;;23.80;50.30;;;;;;6224422;28;20022;-66
2022/08/08 15:05:37;;;;;;;0.40;0.40;;;23.80;50.30;;;;;;6242992;28;20693;-68
2022/08/08 15:08:37;;;;;;;0.82;0.70;;;23.80;50.40;;;;;;6248897;28;20025;-68
2022/08/08 15:11:38;;;;;;;0.30;0.30;;;23.80;50.40;;;;;;6247252;28;20074;-68
2022/08/08 15:14:39;;;;;;;0.60;0.60;;;23.80;50.40;;;;;;6234760;28;20022;-68
2022/08/08 15:17:41;;;;;;;0.40;0.40;;;23.80;50.50;;;;;;6224797;28;20435;-68
2022/08/08 15:20:41;;;;;;;0.50;0.50;;;23.80;50.40;;;;;;6243111;28;20033;-68
2022/08/08 15:23:42;;;;;;;0.50;0.50;;;23.80;50.50;;;;;;6229643;28;20393;-69
2022/08/08 15:26:43;;;;;;;0.60;0.60;;;23.80;50.70;;;;;;6192299;28;20038;-68
2022/08/08 15:29:44;;;;;;;3.47;0.73;;;23.80;50.50;;;;;;6237879;28;20557;-68
2022/08/08 15:32:45;;;;;;;1.45;0.68;;;23.80;50.60;;;;;;6232171;28;20030;-68
2022/08/08 15:35:46;;;;;;;0.82;0.60;;;23.80;50.60;;;;;;6224147;28;20029;-68
2022/08/08 15:38:50;;;;;;;0.65;0.60;;;23.80;50.60;;;;;;6227991;28;20075;-68
2022/08/08 15:41:51;;;;;;;0.70;0.60;;;23.80;50.60;;;;;;6192631;28;20026;-68
2022/08/08 15:44:51;;;;;;;0.55;0.50;;;23.80;50.60;;;;;;6236160;28;20029;-68
2022/08/08 15:47:52;;;;;;;0.90;0.60;;;23.80;50.60;;;;;;6233442;28;20037;-68
2022/08/08 15:51:02;;;;;;;1.00;0.80;;;23.80;50.50;;;;;;6244028;28;20030;-68
2022/08/08 15:54:03;;;;;;;1.50;0.88;;;23.80;50.50;;;;;;6243541;28;20132;-68
2022/08/08 15:57:05;;;;;;;0.60;0.60;;;23.80;50.40;;;;;;6223413;28;20399;-68
2022/08/08 16:00:07;;;;;;;1.35;0.63;;;23.80;50.40;;;;;;6227977;28;20033;-67
2022/08/08 16:03:08;;;;;;;0.90;0.80;;;23.80;50.40;;;;;;6223742;28;20080;-68
2022/08/08 16:06:09;;;;;;;1.10;0.50;;;23.80;50.40;;;;;;6243518;28;20033;-68
2022/08/08 16:09:09;;;;;;;1.23;0.80;;;23.80;50.50;;;;;;6245231;28;20034;-67
2022/08/08 16:12:10;;;;;;;1.15;0.68;;;23.70;50.40;;;;;;6224067;28;20033;-68
2022/08/08 16:15:11;;;;;;;2.28;0.70;;;23.70;50.40;;;;;;6233565;28;20029;-68
2022/08/08 16:18:12;;;;;;;1.60;0.60;;;23.70;50.40;;;;;;6245865;28;20025;-68
2022/08/08 16:21:12;;;;;;;1.23;0.80;;;23.70;50.50;;;;;;6226887;28;20483;-68
2022/08/08 16:24:13;;;;;;;0.70;0.60;;;23.70;50.50;;;;;;6242098;28;20095;-67